Rechercher aéroport 
image banner adimage banner ad
image banner ad

LI-SS09 - Loelle

Situé à Buddus, Italy

ICAO - , IATA -

Données fournies par Airmate  

Information générale

Coordonnées: N40°34'13" E9°19'25"
Élévation : 2598 feet MSL.
 
Voir autres Aéroports à Sardinia

Données opérationnelles

Accessible au public
Heure actuelle UTC:
Heure actuelle locale:
Météo à : LIEO - Olbia/Costa Smeralda ( 40 km )
METAR: LIEO 261250Z 26027G37KT 240V300 9999 SCT030 20/05 Q1004
TAF: TAF LIEO 261100Z 2612/2712 26025G35KT 9999 SCT030 TEMPO 2700/2709 TSRA
Voir NOTAMs / SUP AIP / TFR affectant cet aéroport [VIEW]
Fréquences de communication: [VIEW]

Pistes:

Identifiant RWYQFULongueur (ft)Largeur (ft)SurfaceLDA (ft)
09137759GRASS
27137759GRASS

Coordonnées de l'aéroport

Adresse: Buddus Italy

Vue satellite de LI-SS09